createdAt,value
2023-05-14T00:00:15.987Z,100763.75
2023-05-14T00:03:41.024Z,100761.66
2023-05-14T00:06:43.555Z,100758.41
2023-05-14T00:09:46.499Z,100756.50
2023-05-14T00:12:48.874Z,100745.84
2023-05-14T00:15:51.886Z,100739.75
2023-05-14T00:18:54.473Z,100738.87
2023-05-14T00:21:57.396Z,100732.75
2023-05-14T00:24:59.698Z,100735.22
2023-05-14T00:28:03.025Z,100737.41
2023-05-14T00:31:05.529Z,100735.94
2023-05-14T00:34:08.397Z,100731.34
2023-05-14T00:37:10.929Z,100726.13
2023-05-14T00:40:25.616Z,100731.09
2023-05-14T00:43:28.748Z,100733.59
2023-05-14T00:46:31.870Z,100729.34
2023-05-14T00:49:34.397Z,100732.75
2023-05-14T00:52:37.928Z,100734.81
2023-05-14T00:55:41.090Z,100722.75
2023-05-14T00:58:44.327Z,100721.50
2023-05-14T01:01:46.714Z,100715.44
2023-05-14T01:04:50.029Z,100713.62
2023-05-14T01:08:00.442Z,100705.91
2023-05-14T01:11:09.636Z,100709.44
2023-05-14T01:14:18.259Z,100697.16
2023-05-14T01:17:22.966Z,100696.84
2023-05-14T01:20:26.627Z,100695.84
2023-05-14T01:23:29.713Z,100694.84
2023-05-14T01:26:32.038Z,100687.94
2023-05-14T01:29:36.713Z,100687.94
2023-05-14T01:32:39.776Z,100687.66
2023-05-14T01:35:43.348Z,100680.72
2023-05-14T01:38:47.248Z,100687.66
2023-05-14T01:41:51.151Z,100679.84
2023-05-14T01:44:54.396Z,100677.28
2023-05-14T01:47:57.952Z,100672.06
2023-05-14T01:51:00.344Z,100669.44
2023-05-14T01:54:03.308Z,100666.50
2023-05-14T01:57:05.648Z,100658.63
2023-05-14T02:00:09.388Z,100649.09
2023-05-14T02:03:16.225Z,100626.41
2023-05-14T02:06:19.186Z,100635.16
2023-05-14T02:09:21.600Z,100626.31
2023-05-14T02:12:24.505Z,100636.78
2023-05-14T02:15:27.105Z,100631.31
2023-05-14T02:18:29.806Z,100627.72
2023-05-14T02:21:32.579Z,100630.22
2023-05-14T02:24:35.348Z,100628.00
2023-05-14T02:27:38.353Z,100633.22
2023-05-14T02:30:41.269Z,100630.37
2023-05-14T02:33:44.034Z,100629.47
2023-05-14T02:36:46.647Z,100625.00
2023-05-14T02:39:49.533Z,100628.47
2023-05-14T02:42:52.184Z,100626.84
2023-05-14T02:45:55.264Z,100625.97
2023-05-14T02:48:58.194Z,100626.91
2023-05-14T02:52:00.978Z,100620.75
2023-05-14T02:55:03.806Z,100628.53
2023-05-14T02:58:06.466Z,100624.22
2023-05-14T03:01:09.172Z,100625.38
2023-05-14T03:04:12.492Z,100620.25
2023-05-14T03:07:15.104Z,100624.53
2023-05-14T03:10:17.824Z,100613.94
2023-05-14T03:13:20.848Z,100608.59
2023-05-14T03:16:23.739Z,100606.06
2023-05-14T03:19:26.357Z,100606.94
2023-05-14T03:22:29.101Z,100613.37
2023-05-14T03:25:31.892Z,100617.63
2023-05-14T03:28:34.474Z,100622.88
2023-05-14T03:31:37.207Z,100621.28
2023-05-14T03:34:40.607Z,100615.84
2023-05-14T03:37:43.300Z,100616.87
2023-05-14T03:40:46.338Z,100615.84
2023-05-14T03:43:48.900Z,100613.22
2023-05-14T03:46:51.490Z,100615.91
2023-05-14T03:49:54.099Z,100623.31
2023-05-14T03:52:56.644Z,100619.50
2023-05-14T03:55:59.233Z,100620.31
2023-05-14T03:59:01.800Z,100610.13
2023-05-14T04:02:04.503Z,100597.16
2023-05-14T04:05:07.702Z,100600.25
2023-05-14T04:08:10.651Z,100601.34
2023-05-14T04:11:13.434Z,100598.06
2023-05-14T04:14:16.024Z,100608.28
2023-05-14T04:17:18.945Z,100610.81
2023-05-14T04:20:21.776Z,100603.03
2023-05-14T04:23:25.640Z,100591.06
2023-05-14T04:26:28.491Z,100600.53
2023-05-14T04:29:31.189Z,100602.00
2023-05-14T04:32:33.818Z,100597.53
2023-05-14T04:35:36.449Z,100594.91
2023-05-14T04:38:39.044Z,100588.00
2023-05-14T04:41:42.705Z,100588.88
2023-05-14T04:44:45.415Z,100578.12
2023-05-14T04:47:48.120Z,100589.44
2023-05-14T04:50:50.800Z,100585.63
2023-05-14T04:53:53.419Z,100590.78
2023-05-14T04:56:56.017Z,100593.44
2023-05-14T04:59:58.731Z,100591.53
2023-05-14T05:03:01.374Z,100590.13
2023-05-14T05:06:04.122Z,100583.19
2023-05-14T05:09:06.718Z,100579.72
2023-05-14T05:12:09.428Z,100576.69
2023-05-14T05:15:12.000Z,100584.00
2023-05-14T05:18:14.585Z,100575.19
2023-05-14T05:21:17.227Z,100575.13
2023-05-14T05:24:19.853Z,100571.75
2023-05-14T05:27:22.693Z,100566.63
2023-05-14T05:30:25.515Z,100569.53
2023-05-14T05:33:28.333Z,100565.94
2023-05-14T05:36:31.666Z,100575.44
2023-05-14T05:39:35.199Z,100569.53
2023-05-14T05:42:38.103Z,100564.88
2023-05-14T05:45:41.554Z,100568.25
2023-05-14T05:48:44.244Z,100564.88
2023-05-14T05:51:46.971Z,100570.38
2023-05-14T05:54:49.653Z,100570.31
2023-05-14T05:57:52.359Z,100567.75
2023-05-14T06:00:55.221Z,100561.50
2023-05-14T06:03:58.673Z,100568.84
2023-05-14T06:07:01.036Z,100573.00
2023-05-14T06:10:04.079Z,100573.00
2023-05-14T06:13:06.938Z,100576.75
2023-05-14T06:16:10.082Z,100569.50
2023-05-14T06:19:12.666Z,100578.97
2023-05-14T06:22:15.982Z,100576.44
2023-05-14T06:25:18.635Z,100572.87
2023-05-14T06:28:21.598Z,100576.59
2023-05-14T06:31:24.074Z,100580.13
2023-05-14T06:34:26.988Z,100590.50
2023-05-14T06:37:29.762Z,100582.38
2023-05-14T06:40:32.618Z,100577.97
2023-05-14T06:43:34.937Z,100578.12
2023-05-14T06:46:38.131Z,100571.25
2023-05-14T06:49:40.515Z,100572.28
2023-05-14T06:52:45.158Z,100569.81
2023-05-14T06:55:48.064Z,100560.38
2023-05-14T06:58:51.166Z,100560.47
2023-05-14T07:01:53.543Z,100552.72
2023-05-14T07:04:56.454Z,100544.91
2023-05-14T07:07:58.814Z,100551.31
2023-05-14T07:11:01.721Z,100547.16
2023-05-14T07:14:03.985Z,100543.00
2023-05-14T07:17:07.467Z,100543.19
2023-05-14T07:20:10.512Z,100548.66
2023-05-14T07:23:13.383Z,100534.84
2023-05-14T07:26:15.792Z,100537.72
2023-05-14T07:29:18.632Z,100540.88
2023-05-14T07:32:20.976Z,100533.38
2023-05-14T07:35:23.956Z,100525.50
2023-05-14T07:38:26.305Z,100528.28
2023-05-14T07:41:29.176Z,100518.03
2023-05-14T07:44:31.531Z,100522.56
2023-05-14T07:47:34.544Z,100527.31
2023-05-14T07:50:37.261Z,100526.44
2023-05-14T07:53:40.128Z,100520.50
2023-05-14T07:56:42.492Z,100513.59
2023-05-14T07:59:45.377Z,100505.78
2023-05-14T08:02:49.344Z,100500.66
2023-05-14T08:05:52.625Z,100501.63
2023-05-14T08:08:54.966Z,100492.53
2023-05-14T08:11:57.816Z,100502.13
2023-05-14T08:15:00.234Z,100488.72
2023-05-14T08:18:03.858Z,100489.50
2023-05-14T08:21:06.254Z,100484.13
2023-05-14T08:24:09.158Z,100473.59
2023-05-14T08:27:11.531Z,100478.88
2023-05-14T08:30:14.663Z,100467.37
2023-05-14T08:33:18.117Z,100473.66
2023-05-14T08:36:20.978Z,100463.87
2023-05-14T08:39:23.300Z,100462.06
2023-05-14T08:42:27.007Z,100469.25
2023-05-14T08:45:33.914Z,100466.53
2023-05-14T08:48:40.815Z,100456.94
2023-05-14T08:51:44.784Z,100441.28
2023-05-14T08:54:48.404Z,100436.87
2023-05-14T08:57:50.837Z,100445.22
2023-05-14T09:00:53.825Z,100442.03
2023-05-14T09:03:56.676Z,100446.00
2023-05-14T09:07:01.424Z,100441.41
2023-05-14T09:10:04.584Z,100443.91
2023-05-14T09:13:07.756Z,100440.72
2023-05-14T09:16:10.056Z,100437.50
2023-05-14T09:19:13.328Z,100433.53
2023-05-14T09:22:17.599Z,100438.72
2023-05-14T09:25:20.488Z,100428.94
2023-05-14T09:28:22.975Z,100425.38
2023-05-14T09:31:25.890Z,100427.09
2023-05-14T09:34:29.429Z,100417.38
2023-05-14T09:37:36.121Z,100419.19
2023-05-14T09:40:38.458Z,100427.31
2023-05-14T09:43:44.297Z,100421.19
2023-05-14T09:46:46.997Z,100419.31
2023-05-14T09:49:50.797Z,100405.22
2023-05-14T09:52:55.173Z,100401.66
2023-05-14T09:55:58.094Z,100401.72
2023-05-14T09:59:00.412Z,100400.94
2023-05-14T10:02:05.608Z,100402.97
2023-05-14T10:05:09.392Z,100402.09
2023-05-14T10:08:24.587Z,100394.00
2023-05-14T10:11:31.064Z,100384.28
2023-05-14T10:14:36.007Z,100377.38
2023-05-14T10:17:41.039Z,100353.03
2023-05-14T10:20:44.156Z,100329.53
2023-05-14T10:23:46.992Z,100320.31
2023-05-14T10:26:49.793Z,100319.00
2023-05-14T10:29:56.319Z,100300.91
2023-05-14T10:33:09.314Z,100285.19
2023-05-14T10:36:12.063Z,100294.78
2023-05-14T10:39:14.805Z,100308.06
2023-05-14T10:42:24.784Z,100326.97
2023-05-14T10:45:27.461Z,100331.13
2023-05-14T10:48:30.109Z,100336.50
2023-05-14T10:51:33.462Z,100337.97
2023-05-14T10:54:36.833Z,100328.97
2023-05-14T10:57:40.639Z,100321.87
2023-05-14T11:00:47.546Z,100319.28
2023-05-14T11:03:53.197Z,100321.87
2023-05-14T11:06:56.727Z,100318.50
2023-05-14T11:10:03.703Z,100315.75
2023-05-14T11:13:06.416Z,100316.94
2023-05-14T11:16:21.793Z,100312.53
2023-05-14T11:19:26.374Z,100307.81
2023-05-14T11:22:29.142Z,100299.84
2023-05-14T11:25:31.850Z,100294.84
2023-05-14T11:28:34.485Z,100299.06
2023-05-14T11:31:37.216Z,100297.13
2023-05-14T11:34:40.741Z,100299.66
2023-05-14T11:37:43.970Z,100286.62
2023-05-14T11:40:54.024Z,100297.87
2023-05-14T11:43:57.965Z,100290.19
2023-05-14T11:47:02.165Z,100291.78
2023-05-14T11:50:05.600Z,100291.87
2023-05-14T11:53:09.011Z,100289.34
2023-05-14T11:56:12.188Z,100290.84
2023-05-14T11:59:17.054Z,100285.41
2023-05-14T12:02:19.910Z,100277.37
2023-05-14T12:05:23.034Z,100274.72
2023-05-14T12:08:29.538Z,100266.09
2023-05-14T12:11:32.924Z,100255.75
2023-05-14T12:14:37.815Z,100260.06
2023-05-14T12:17:41.131Z,100254.63
2023-05-14T12:20:51.241Z,100252.00
2023-05-14T12:23:59.236Z,100244.06
2023-05-14T12:27:02.466Z,100236.97
2023-05-14T12:33:11.829Z,100232.06
2023-05-14T12:39:22.654Z,100232.63
2023-05-14T12:42:25.648Z,100229.03
2023-05-14T12:45:27.964Z,100232.50
2023-05-14T12:48:31.465Z,100234.13
2023-05-14T12:51:33.931Z,100236.91
2023-05-14T12:54:36.899Z,100233.41
2023-05-14T12:57:39.806Z,100220.16
2023-05-14T13:00:43.169Z,100220.16
2023-05-14T13:03:45.739Z,100205.34
2023-05-14T13:06:48.672Z,100203.37
2023-05-14T13:09:50.992Z,100191.03
2023-05-14T13:12:53.889Z,100192.81
2023-05-14T13:15:56.367Z,100185.00
2023-05-14T13:18:59.663Z,100194.84
2023-05-14T13:22:02.238Z,100186.81
2023-05-14T13:25:05.932Z,100189.28
2023-05-14T13:28:08.495Z,100176.97
2023-05-14T13:31:12.571Z,100169.78
2023-05-14T13:34:15.028Z,100164.44
2023-05-14T13:37:18.033Z,100153.09
2023-05-14T13:40:22.030Z,100155.81
2023-05-14T13:43:25.087Z,100151.50
2023-05-14T13:46:27.472Z,100141.75
2023-05-14T13:49:30.395Z,100137.59
2023-05-14T13:52:32.873Z,100135.78
2023-05-14T13:55:35.841Z,100128.91
2023-05-14T13:58:38.187Z,100127.78
2023-05-14T14:01:43.337Z,100124.16
2023-05-14T14:04:46.078Z,100115.44
2023-05-14T14:07:50.503Z,100124.13
2023-05-14T14:10:55.885Z,100119.84
2023-05-14T14:13:58.534Z,100107.59
2023-05-14T14:17:01.368Z,100104.97
2023-05-14T14:20:05.965Z,100099.97
2023-05-14T14:23:08.939Z,100110.25
2023-05-14T14:26:11.681Z,100099.75
2023-05-14T14:29:14.507Z,100112.84
2023-05-14T14:32:17.339Z,100098.72
2023-05-14T14:35:20.211Z,100110.06
2023-05-14T14:38:22.937Z,100100.38
2023-05-14T14:41:26.677Z,100110.81
2023-05-14T14:44:29.526Z,100109.13
2023-05-14T14:47:32.505Z,100096.84
2023-05-14T14:50:35.178Z,100088.16
2023-05-14T14:53:37.821Z,100086.47
2023-05-14T14:56:40.659Z,100083.81
2023-05-14T14:59:43.353Z,100089.91
2023-05-14T15:02:46.058Z,100081.09
2023-05-14T15:05:49.266Z,100074.13
2023-05-14T15:08:51.886Z,100064.47
2023-05-14T15:11:54.664Z,100062.62
2023-05-14T15:14:57.353Z,100062.53
2023-05-14T15:18:00.013Z,100057.41
2023-05-14T15:21:02.913Z,100052.97
2023-05-14T15:24:05.659Z,100054.53
2023-05-14T15:27:08.282Z,100037.00
2023-05-14T15:30:11.537Z,100044.81
2023-05-14T15:33:17.916Z,100040.41
2023-05-14T15:36:20.608Z,100040.34
2023-05-14T15:39:23.250Z,100035.38
2023-05-14T15:42:27.034Z,100045.50
2023-05-14T15:45:29.638Z,100041.00
2023-05-14T15:48:32.568Z,100040.06
2023-05-14T15:51:35.345Z,100044.34
2023-05-14T15:54:37.980Z,100038.19
2023-05-14T15:57:40.754Z,100030.28
2023-05-14T16:00:43.423Z,100006.28
2023-05-14T16:03:46.924Z,99997.97
2023-05-14T16:06:49.364Z,99987.44
2023-05-14T16:09:52.303Z,99988.16
2023-05-14T16:12:54.668Z,99978.59
2023-05-14T16:15:59.912Z,99984.66
2023-05-14T16:19:02.639Z,99982.88
2023-05-14T16:22:06.108Z,99986.56
2023-05-14T16:25:08.500Z,99986.41
2023-05-14T16:28:11.474Z,99991.69
2023-05-14T16:31:15.329Z,99991.66
2023-05-14T16:34:18.282Z,99991.63
2023-05-14T16:37:20.667Z,99989.84
2023-05-14T16:40:24.186Z,99978.50
2023-05-14T16:43:26.717Z,99988.88
2023-05-14T16:46:30.658Z,99976.75
2023-05-14T16:49:33.126Z,99966.19
2023-05-14T16:52:36.061Z,99961.78
2023-05-14T16:55:38.479Z,99961.69
2023-05-14T16:58:41.516Z,99945.09
2023-05-14T17:01:44.160Z,99946.00
2023-05-14T17:04:47.142Z,99941.66
2023-05-14T17:07:49.530Z,99941.81
2023-05-14T17:10:52.415Z,99933.88
2023-05-14T17:13:54.830Z,99927.81
2023-05-14T17:16:57.675Z,99934.75
2023-05-14T17:20:00.841Z,99926.94
2023-05-14T17:23:03.625Z,99917.37
2023-05-14T17:26:06.260Z,99916.53
2023-05-14T17:29:09.251Z,99920.00
2023-05-14T17:32:11.919Z,99927.97
2023-05-14T17:35:14.564Z,99922.59
2023-05-14T17:38:17.297Z,99908.69
2023-05-14T17:41:19.948Z,99909.50
2023-05-14T17:44:22.578Z,99896.50
2023-05-14T17:47:25.296Z,99896.34
2023-05-14T17:50:27.952Z,99888.44
2023-05-14T17:53:30.620Z,99881.47
2023-05-14T17:56:33.435Z,99887.53
2023-05-14T17:59:36.284Z,99882.44
2023-05-14T18:02:39.201Z,99880.56
2023-05-14T18:05:42.046Z,99865.75
2023-05-14T18:08:44.623Z,99864.81
2023-05-14T18:11:47.212Z,99873.47
2023-05-14T18:14:49.830Z,99863.87
2023-05-14T18:17:52.841Z,99856.06
2023-05-14T18:20:55.669Z,99854.41
2023-05-14T18:23:58.445Z,99859.66
2023-05-14T18:27:01.168Z,99868.38
2023-05-14T18:30:03.975Z,99867.50
2023-05-14T18:33:06.739Z,99873.22
2023-05-14T18:36:09.812Z,99882.62
2023-05-14T18:39:12.612Z,99886.00
2023-05-14T18:42:16.674Z,99885.91
2023-05-14T18:45:19.413Z,99881.47
2023-05-14T18:48:22.034Z,99881.69
2023-05-14T18:51:24.914Z,99885.06
2023-05-14T18:54:27.488Z,99881.59
2023-05-14T18:57:32.184Z,99882.53
2023-05-14T19:00:34.979Z,99866.78
2023-05-14T19:03:37.727Z,99867.84
2023-05-14T19:06:40.633Z,99870.28
2023-05-14T19:09:43.261Z,99869.38
2023-05-14T19:12:46.454Z,99874.62
2023-05-14T19:15:49.073Z,99860.72
2023-05-14T19:18:51.867Z,99857.16
2023-05-14T19:21:54.557Z,99858.09
2023-05-14T19:24:57.135Z,99858.13
2023-05-14T19:28:01.624Z,99862.53
2023-05-14T19:31:04.835Z,99856.34
2023-05-14T19:34:10.875Z,99848.59
2023-05-14T19:37:13.936Z,99852.09
2023-05-14T19:40:16.623Z,99851.28
2023-05-14T19:43:19.929Z,99843.53
2023-05-14T19:46:22.670Z,99843.47
2023-05-14T19:49:25.352Z,99849.78
2023-05-14T19:52:28.169Z,99839.97
2023-05-14T19:55:30.882Z,99835.50
2023-05-14T19:58:33.608Z,99845.94
2023-05-14T20:01:36.594Z,99842.66
2023-05-14T20:04:40.055Z,99833.72
2023-05-14T20:07:42.605Z,99845.06
2023-05-14T20:10:45.557Z,99842.44
2023-05-14T20:13:47.934Z,99826.72
2023-05-14T20:16:50.941Z,99826.75
2023-05-14T20:19:53.292Z,99821.50
2023-05-14T20:22:56.220Z,99823.28
2023-05-14T20:25:58.585Z,99825.94
2023-05-14T20:29:01.575Z,99825.13
2023-05-14T20:32:04.198Z,99822.47
2023-05-14T20:35:07.517Z,99823.31
2023-05-14T20:38:10.178Z,99813.75
2023-05-14T20:41:13.187Z,99806.84
2023-05-14T20:44:16.373Z,99808.56
2023-05-14T20:47:23.810Z,99800.69
2023-05-14T20:50:27.813Z,99799.81
2023-05-14T20:53:31.200Z,99791.12
2023-05-14T20:56:33.675Z,99782.38
2023-05-14T20:59:36.559Z,99783.22
2023-05-14T21:02:39.323Z,99777.97
2023-05-14T21:05:43.705Z,99770.13
2023-05-14T21:08:46.037Z,99764.94
2023-05-14T21:11:48.957Z,99771.87
2023-05-14T21:14:51.295Z,99758.81
2023-05-14T21:17:54.382Z,99760.59
2023-05-14T21:20:56.766Z,99765.81
2023-05-14T21:23:59.628Z,99758.09
2023-05-14T21:27:01.922Z,99763.28
2023-05-14T21:30:05.204Z,99751.03
2023-05-14T21:33:07.555Z,99748.41
2023-05-14T21:36:10.798Z,99747.53
2023-05-14T21:39:13.792Z,99742.28
2023-05-14T21:42:17.669Z,99723.97
2023-05-14T21:45:22.190Z,99704.88
2023-05-14T21:48:26.405Z,99701.38
2023-05-14T21:51:29.917Z,99694.25
2023-05-14T21:54:32.808Z,99696.09
2023-05-14T21:57:35.128Z,99690.81
2023-05-14T22:00:38.831Z,99693.44
2023-05-14T22:03:41.791Z,99688.19
2023-05-14T22:06:44.489Z,99693.34
2023-05-14T22:09:47.128Z,99698.53
2023-05-14T22:12:49.806Z,99695.09
2023-05-14T22:16:01.582Z,99688.06
2023-05-14T22:19:12.003Z,99700.34
2023-05-14T22:22:14.739Z,99704.66
2023-05-14T22:25:17.559Z,99696.81
2023-05-14T22:28:20.837Z,99702.03
2023-05-14T22:31:23.580Z,99701.28
2023-05-14T22:34:26.240Z,99705.66
2023-05-14T22:37:28.812Z,99701.28
2023-05-14T22:40:31.444Z,99692.56
2023-05-14T22:43:34.020Z,99694.31
2023-05-14T22:46:36.744Z,99697.78
2023-05-14T22:49:40.288Z,99694.28
2023-05-14T22:52:42.856Z,99699.56
2023-05-14T22:55:45.801Z,99695.19
2023-05-14T22:58:48.454Z,99703.06
2023-05-14T23:01:51.256Z,99702.22
2023-05-14T23:04:54.052Z,99700.50
2023-05-14T23:07:56.711Z,99687.38
2023-05-14T23:10:59.265Z,99687.38
2023-05-14T23:14:01.816Z,99690.00
2023-05-14T23:17:04.470Z,99687.38
2023-05-14T23:20:07.437Z,99680.44
2023-05-14T23:23:10.090Z,99680.44
2023-05-14T23:26:12.673Z,99669.03
2023-05-14T23:29:15.357Z,99663.81
2023-05-14T23:32:17.973Z,99651.66
2023-05-14T23:35:20.699Z,99644.69
2023-05-14T23:38:23.342Z,99639.38
2023-05-14T23:41:26.581Z,99636.78
2023-05-14T23:44:29.166Z,99630.69
2023-05-14T23:47:31.811Z,99634.19
2023-05-14T23:50:34.692Z,99628.06
2023-05-14T23:53:37.441Z,99630.69
2023-05-14T23:56:40.680Z,99613.22
2023-05-14T23:59:43.278Z,99611.53
